EGDX

MOD St. Athan Airport

St. Athan, United Kingdom
METAR EGDX 201450Z 34010KT 9999 FEW030 11/00 Q1024 BLU
Observed Flight Rules
Feb-20 @ 14:50 UTC (2 hours ago) Visual Flight Rules
Wind Visibility Clouds
340° at 10 knots 10,000+ meters
  • Few at 3,000' AGL
Temperatures Readings
Current 11°C / 52°F
Dewpoint 0°C / 32°F
Humidity 47%
Altimeter 30.24" Hg
Pressure 1024 hPa
Elevation 50
METAR EGDX 201450Z 34010KT 9999 FEW030 11/00 Q1024 BLU
Observed Flight Rules
Feb-20 @ 14:50 UTC
(2 hours ago)
VFR
Wind Visibility
340° at 10 knots 10,000+ meters
Clouds
  • Few at 3,000' AGL
Temperature Dewpoint
11°C / 52°F 0°C / 32°F
Humidity Altimeter Pressure
47% 30.24" Hg 1024 hPa